sensor_id;sensor_type;location;lat;lon;timestamp;pressure;altitude;pressure_sealevel;temperature;humidity
59873;BME280;50750;51.636;4.948;2023-07-13T00:01:32;101526.48;;;25.22;49.43
59873;BME280;50750;51.636;4.948;2023-07-13T00:03:59;101528.84;;;25.22;49.40
59873;BME280;50750;51.636;4.948;2023-07-13T00:06:26;101533.00;;;25.21;49.52
59873;BME280;50750;51.636;4.948;2023-07-13T00:08:59;101535.01;;;25.21;49.48
59873;BME280;50750;51.636;4.948;2023-07-13T00:11:26;101539.34;;;25.21;49.51
59873;BME280;50750;51.636;4.948;2023-07-13T00:13:52;101541.37;;;25.20;49.46
59873;BME280;50750;51.636;4.948;2023-07-13T00:16:19;101540.47;;;25.20;49.45
59873;BME280;50750;51.636;4.948;2023-07-13T00:18:46;101537.81;;;25.20;49.41
59873;BME280;50750;51.636;4.948;2023-07-13T00:21:13;101536.40;;;25.19;49.38
59873;BME280;50750;51.636;4.948;2023-07-13T00:23:41;101525.33;;;25.19;49.47
59873;BME280;50750;51.636;4.948;2023-07-13T00:26:10;101528.86;;;25.19;49.42
59873;BME280;50750;51.636;4.948;2023-07-13T00:28:37;101526.43;;;25.18;49.45
59873;BME280;50750;51.636;4.948;2023-07-13T00:31:03;101526.31;;;25.18;49.52
59873;BME280;50750;51.636;4.948;2023-07-13T00:33:30;101529.56;;;25.18;49.46
59873;BME280;50750;51.636;4.948;2023-07-13T00:35:57;101532.80;;;25.17;49.39
59873;BME280;50750;51.636;4.948;2023-07-13T00:38:24;101530.15;;;25.17;49.42
59873;BME280;50750;51.636;4.948;2023-07-13T00:40:50;101527.50;;;25.16;49.37
59873;BME280;50750;51.636;4.948;2023-07-13T00:43:21;101523.60;;;25.16;49.44
59873;BME280;50750;51.636;4.948;2023-07-13T00:48:28;101529.05;;;25.15;49.38
59873;BME280;50750;51.636;4.948;2023-07-13T00:50:58;101531.55;;;25.14;49.43
59873;BME280;50750;51.636;4.948;2023-07-13T00:53:27;101530.32;;;25.14;49.52
59873;BME280;50750;51.636;4.948;2023-07-13T00:55:56;101532.14;;;25.14;49.45
59873;BME280;50750;51.636;4.948;2023-07-13T00:58:25;101530.39;;;25.13;49.48
59873;BME280;50750;51.636;4.948;2023-07-13T01:00:52;101533.65;;;25.13;49.37
59873;BME280;50750;51.636;4.948;2023-07-13T01:03:19;101538.31;;;25.13;49.55
59873;BME280;50750;51.636;4.948;2023-07-13T01:05:48;101547.31;;;25.12;49.43
59873;BME280;50750;51.636;4.948;2023-07-13T01:08:15;101548.39;;;25.12;49.43
59873;BME280;50750;51.636;4.948;2023-07-13T01:10:51;101554.33;;;25.12;49.57
59873;BME280;50750;51.636;4.948;2023-07-13T01:13:18;101552.20;;;25.12;49.47
59873;BME280;50750;51.636;4.948;2023-07-13T01:15:48;101551.14;;;25.11;49.58
59873;BME280;50750;51.636;4.948;2023-07-13T01:18:21;101553.83;;;25.11;49.67
59873;BME280;50750;51.636;4.948;2023-07-13T01:20:55;101549.55;;;25.11;49.52
59873;BME280;50750;51.636;4.948;2023-07-13T01:23:23;101552.08;;;25.11;49.47
59873;BME280;50750;51.636;4.948;2023-07-13T01:25:52;101554.95;;;25.11;49.64
59873;BME280;50750;51.636;4.948;2023-07-13T01:28:19;101554.77;;;25.11;49.56
59873;BME280;50750;51.636;4.948;2023-07-13T01:30:46;101557.30;;;25.11;49.48
59873;BME280;50750;51.636;4.948;2023-07-13T01:33:15;101557.38;;;25.10;49.63
59873;BME280;50750;51.636;4.948;2023-07-13T01:35:43;101563.61;;;25.10;49.55
59873;BME280;50750;51.636;4.948;2023-07-13T01:38:10;101566.18;;;25.09;49.69
59873;BME280;50750;51.636;4.948;2023-07-13T01:40:38;101565.88;;;25.09;49.72
59873;BME280;50750;51.636;4.948;2023-07-13T01:43:04;101561.92;;;25.09;49.68
59873;BME280;50750;51.636;4.948;2023-07-13T01:45:31;101560.86;;;25.09;49.68
59873;BME280;50750;51.636;4.948;2023-07-13T01:47:58;101562.56;;;25.08;49.51
59873;BME280;50750;51.636;4.948;2023-07-13T01:50:25;101565.80;;;25.08;49.59
59873;BME280;50750;51.636;4.948;2023-07-13T01:52:52;101568.16;;;25.07;49.38
59873;BME280;50750;51.636;4.948;2023-07-13T01:55:20;101567.27;;;25.07;49.57
59873;BME280;50750;51.636;4.948;2023-07-13T01:57:47;101568.37;;;25.07;49.58
59873;BME280;50750;51.636;4.948;2023-07-13T02:00:14;101571.13;;;25.06;49.64
59873;BME280;50750;51.636;4.948;2023-07-13T02:02:41;101569.52;;;25.06;49.61
59873;BME280;50750;51.636;4.948;2023-07-13T02:05:08;101567.11;;;25.05;49.60
59873;BME280;50750;51.636;4.948;2023-07-13T02:07:35;101571.63;;;25.04;49.62
59873;BME280;50750;51.636;4.948;2023-07-13T02:10:01;101573.80;;;25.04;49.55
59873;BME280;50750;51.636;4.948;2023-07-13T02:12:28;101572.58;;;25.03;49.55
59873;BME280;50750;51.636;4.948;2023-07-13T02:14:56;101579.05;;;25.03;49.73
59873;BME280;50750;51.636;4.948;2023-07-13T02:17:22;101580.72;;;25.03;49.82
59873;BME280;50750;51.636;4.948;2023-07-13T02:19:49;101581.31;;;25.02;49.65
59873;BME280;50750;51.636;4.948;2023-07-13T02:22:15;101583.15;;;25.01;49.62
59873;BME280;50750;51.636;4.948;2023-07-13T02:24:42;101580.65;;;25.01;49.63
59873;BME280;50750;51.636;4.948;2023-07-13T02:27:08;101581.45;;;25.00;49.72
59873;BME280;50750;51.636;4.948;2023-07-13T02:29:35;101572.38;;;25.00;49.65
59873;BME280;50750;51.636;4.948;2023-07-13T02:32:01;101571.52;;;24.99;49.62
59873;BME280;50750;51.636;4.948;2023-07-13T02:34:31;101569.74;;;24.99;49.75
59873;BME280;50750;51.636;4.948;2023-07-13T02:36:57;101567.45;;;24.98;49.81
59873;BME280;50750;51.636;4.948;2023-07-13T02:39:24;101567.49;;;24.98;49.64
59873;BME280;50750;51.636;4.948;2023-07-13T02:41:50;101566.81;;;24.97;49.67
59873;BME280;50750;51.636;4.948;2023-07-13T02:44:17;101568.09;;;24.97;49.74
59873;BME280;50750;51.636;4.948;2023-07-13T02:46:43;101569.05;;;24.96;49.65
59873;BME280;50750;51.636;4.948;2023-07-13T02:49:10;101571.77;;;24.96;49.67
59873;BME280;50750;51.636;4.948;2023-07-13T02:51:36;101573.20;;;24.96;49.66
59873;BME280;50750;51.636;4.948;2023-07-13T02:54:03;101570.05;;;24.95;49.72
59873;BME280;50750;51.636;4.948;2023-07-13T02:56:31;101566.13;;;24.95;49.71
59873;BME280;50750;51.636;4.948;2023-07-13T02:58:58;101566.52;;;24.94;49.80
59873;BME280;50750;51.636;4.948;2023-07-13T03:01:25;101567.09;;;24.94;49.75
59873;BME280;50750;51.636;4.948;2023-07-13T03:03:51;101566.05;;;24.93;49.79
59873;BME280;50750;51.636;4.948;2023-07-13T03:06:19;101561.77;;;24.93;49.71
59873;BME280;50750;51.636;4.948;2023-07-13T03:08:45;101564.86;;;24.93;49.79
59873;BME280;50750;51.636;4.948;2023-07-13T03:11:14;101567.39;;;24.92;49.73
59873;BME280;50750;51.636;4.948;2023-07-13T03:13:41;101568.36;;;24.91;49.75
59873;BME280;50750;51.636;4.948;2023-07-13T03:16:09;101571.14;;;24.90;49.75
59873;BME280;50750;51.636;4.948;2023-07-13T03:18:37;101572.62;;;24.89;49.76
59873;BME280;50750;51.636;4.948;2023-07-13T03:21:04;101570.88;;;24.89;49.94
59873;BME280;50750;51.636;4.948;2023-07-13T03:23:32;101568.61;;;24.88;49.77
59873;BME280;50750;51.636;4.948;2023-07-13T03:26:06;101570.58;;;24.88;49.75
59873;BME280;50750;51.636;4.948;2023-07-13T03:28:33;101572.41;;;24.88;49.87
59873;BME280;50750;51.636;4.948;2023-07-13T03:31:05;101577.06;;;24.87;49.79
59873;BME280;50750;51.636;4.948;2023-07-13T03:33:33;101573.85;;;24.87;49.77
59873;BME280;50750;51.636;4.948;2023-07-13T03:36:00;101577.14;;;24.87;49.74
59873;BME280;50750;51.636;4.948;2023-07-13T03:38:26;101578.95;;;24.86;49.93
59873;BME280;50750;51.636;4.948;2023-07-13T03:40:53;101584.36;;;24.86;49.85
59873;BME280;50750;51.636;4.948;2023-07-13T03:43:19;101584.21;;;24.85;49.83
59873;BME280;50750;51.636;4.948;2023-07-13T03:45:46;101589.07;;;24.85;49.76
59873;BME280;50750;51.636;4.948;2023-07-13T03:48:14;101590.52;;;24.85;49.88
59873;BME280;50750;51.636;4.948;2023-07-13T03:50:41;101588.36;;;24.85;49.74
59873;BME280;50750;51.636;4.948;2023-07-13T03:53:07;101584.30;;;24.85;49.88
59873;BME280;50750;51.636;4.948;2023-07-13T03:55:34;101590.80;;;24.84;49.83
59873;BME280;50750;51.636;4.948;2023-07-13T03:58:24;101589.20;;;24.84;49.79
59873;BME280;50750;51.636;4.948;2023-07-13T04:00:53;101592.83;;;24.83;49.81
59873;BME280;50750;51.636;4.948;2023-07-13T04:03:20;101598.09;;;24.83;49.80
59873;BME280;50750;51.636;4.948;2023-07-13T04:05:47;101601.11;;;24.83;49.79
59873;BME280;50750;51.636;4.948;2023-07-13T04:08:14;101603.10;;;24.82;49.81
59873;BME280;50750;51.636;4.948;2023-07-13T04:10:40;101602.23;;;24.82;49.89
59873;BME280;50750;51.636;4.948;2023-07-13T04:13:06;101604.77;;;24.82;49.83
59873;BME280;50750;51.636;4.948;2023-07-13T04:15:33;101607.16;;;24.81;49.94
59873;BME280;50750;51.636;4.948;2023-07-13T04:17:59;101612.37;;;24.81;49.92
59873;BME280;50750;51.636;4.948;2023-07-13T04:20:26;101612.20;;;24.81;49.84
59873;BME280;50750;51.636;4.948;2023-07-13T04:22:52;101611.16;;;24.80;49.94
59873;BME280;50750;51.636;4.948;2023-07-13T04:25:20;101613.69;;;24.80;49.80
59873;BME280;50750;51.636;4.948;2023-07-13T04:27:47;101616.05;;;24.79;50.00
59873;BME280;50750;51.636;4.948;2023-07-13T04:30:13;101620.91;;;24.79;49.95
59873;BME280;50750;51.636;4.948;2023-07-13T04:32:40;101624.20;;;24.79;49.94
59873;BME280;50750;51.636;4.948;2023-07-13T04:35:07;101627.05;;;24.79;49.87
59873;BME280;50750;51.636;4.948;2023-07-13T04:37:33;101628.34;;;24.78;49.95
59873;BME280;50750;51.636;4.948;2023-07-13T04:40:02;101625.14;;;24.78;49.97
59873;BME280;50750;51.636;4.948;2023-07-13T04:42:29;101626.44;;;24.77;49.84
59873;BME280;50750;51.636;4.948;2023-07-13T04:44:56;101624.52;;;24.77;49.88
59873;BME280;50750;51.636;4.948;2023-07-13T04:47:22;101627.73;;;24.77;49.99
59873;BME280;50750;51.636;4.948;2023-07-13T04:49:49;101631.73;;;24.76;50.00
59873;BME280;50750;51.636;4.948;2023-07-13T04:52:15;101634.44;;;24.76;49.89
59873;BME280;50750;51.636;4.948;2023-07-13T04:54:42;101631.42;;;24.75;49.87
59873;BME280;50750;51.636;4.948;2023-07-13T04:57:08;101636.15;;;24.75;50.01
59873;BME280;50750;51.636;4.948;2023-07-13T04:59:35;101638.83;;;24.74;49.91
59873;BME280;50750;51.636;4.948;2023-07-13T05:02:01;101637.24;;;24.74;49.97
59873;BME280;50750;51.636;4.948;2023-07-13T05:04:27;101636.53;;;24.74;49.91
59873;BME280;50750;51.636;4.948;2023-07-13T05:06:54;101639.07;;;24.74;49.93
59873;BME280;50750;51.636;4.948;2023-07-13T05:09:20;101643.20;;;24.74;49.89
59873;BME280;50750;51.636;4.948;2023-07-13T05:11:47;101644.30;;;24.73;50.01
59873;BME280;50750;51.636;4.948;2023-07-13T05:14:13;101638.86;;;24.72;50.00
59873;BME280;50750;51.636;4.948;2023-07-13T05:16:42;101648.30;;;24.73;49.93
59873;BME280;50750;51.636;4.948;2023-07-13T05:19:09;101650.49;;;24.72;50.04
59873;BME280;50750;51.636;4.948;2023-07-13T05:21:36;101653.55;;;24.72;50.00
59873;BME280;50750;51.636;4.948;2023-07-13T05:24:02;101653.21;;;24.71;49.98
59873;BME280;50750;51.636;4.948;2023-07-13T05:26:29;101652.88;;;24.71;49.96
59873;BME280;50750;51.636;4.948;2023-07-13T05:28:55;101651.79;;;24.71;50.02
59873;BME280;50750;51.636;4.948;2023-07-13T05:31:22;101651.27;;;24.71;50.11
59873;BME280;50750;51.636;4.948;2023-07-13T05:33:48;101651.70;;;24.70;50.00
59873;BME280;50750;51.636;4.948;2023-07-13T05:36:15;101654.21;;;24.70;50.05
59873;BME280;50750;51.636;4.948;2023-07-13T05:38:42;101654.75;;;24.70;50.13
59873;BME280;50750;51.636;4.948;2023-07-13T05:41:08;101656.76;;;24.69;50.15
59873;BME280;50750;51.636;4.948;2023-07-13T05:43:35;101657.66;;;24.69;49.94
59873;BME280;50750;51.636;4.948;2023-07-13T05:46:01;101657.36;;;24.69;50.16
59873;BME280;50750;51.636;4.948;2023-07-13T05:48:28;101662.92;;;24.68;50.04
59873;BME280;50750;51.636;4.948;2023-07-13T05:50:55;101671.71;;;24.68;50.00
59873;BME280;50750;51.636;4.948;2023-07-13T05:53:21;101673.55;;;24.68;50.05
59873;BME280;50750;51.636;4.948;2023-07-13T05:55:48;101675.34;;;24.68;50.03
59873;BME280;50750;51.636;4.948;2023-07-13T05:58:17;101678.80;;;24.67;49.95
59873;BME280;50750;51.636;4.948;2023-07-13T06:00:43;101681.66;;;24.67;50.01
59873;BME280;50750;51.636;4.948;2023-07-13T06:03:10;101689.73;;;24.67;50.10
59873;BME280;50750;51.636;4.948;2023-07-13T06:05:38;101690.86;;;24.66;50.12
59873;BME280;50750;51.636;4.948;2023-07-13T06:08:05;101697.13;;;24.66;50.05
59873;BME280;50750;51.636;4.948;2023-07-13T06:10:33;101696.43;;;24.66;50.23
59873;BME280;50750;51.636;4.948;2023-07-13T06:13:00;101701.27;;;24.66;50.01
59873;BME280;50750;51.636;4.948;2023-07-13T06:15:26;101703.98;;;24.66;50.09
59873;BME280;50750;51.636;4.948;2023-07-13T06:17:53;101703.11;;;24.65;50.07
59873;BME280;50750;51.636;4.948;2023-07-13T06:20:19;101703.70;;;24.64;50.17
59873;BME280;50750;51.636;4.948;2023-07-13T06:22:46;101707.29;;;24.64;50.31
59873;BME280;50750;51.636;4.948;2023-07-13T06:25:12;101705.48;;;24.65;50.07
59873;BME280;50750;51.636;4.948;2023-07-13T06:27:39;101704.09;;;24.64;50.20
59873;BME280;50750;51.636;4.948;2023-07-13T06:30:05;101706.05;;;24.64;50.24
59873;BME280;50750;51.636;4.948;2023-07-13T06:32:32;101707.36;;;24.64;50.16
59873;BME280;50750;51.636;4.948;2023-07-13T06:34:58;101706.11;;;24.63;50.21
59873;BME280;50750;51.636;4.948;2023-07-13T06:37:25;101704.35;;;24.63;50.28
59873;BME280;50750;51.636;4.948;2023-07-13T06:39:51;101710.09;;;24.63;50.24
59873;BME280;50750;51.636;4.948;2023-07-13T06:42:18;101709.57;;;24.63;50.11
59873;BME280;50750;51.636;4.948;2023-07-13T06:44:44;101713.36;;;24.62;50.25
59873;BME280;50750;51.636;4.948;2023-07-13T06:47:11;101718.16;;;24.63;50.19
59873;BME280;50750;51.636;4.948;2023-07-13T06:49:37;101717.71;;;24.62;50.20
59873;BME280;50750;51.636;4.948;2023-07-13T06:52:04;101718.42;;;24.62;50.16
59873;BME280;50750;51.636;4.948;2023-07-13T06:54:31;101721.33;;;24.61;50.16
59873;BME280;50750;51.636;4.948;2023-07-13T06:56:57;101724.71;;;24.61;50.14
59873;BME280;50750;51.636;4.948;2023-07-13T06:59:24;101724.02;;;24.61;50.26
59873;BME280;50750;51.636;4.948;2023-07-13T07:01:51;101723.67;;;24.61;50.25
59873;BME280;50750;51.636;4.948;2023-07-13T07:04:17;101722.98;;;24.60;50.23
59873;BME280;50750;51.636;4.948;2023-07-13T07:06:43;101721.18;;;24.61;50.30
59873;BME280;50750;51.636;4.948;2023-07-13T07:09:10;101719.11;;;24.60;50.39
59873;BME280;50750;51.636;4.948;2023-07-13T07:11:36;101722.51;;;24.60;50.23
59873;BME280;50750;51.636;4.948;2023-07-13T07:14:03;101727.71;;;24.60;50.20
59873;BME280;50750;51.636;4.948;2023-07-13T07:16:30;101725.41;;;24.59;50.35
59873;BME280;50750;51.636;4.948;2023-07-13T07:18:57;101728.84;;;24.59;50.36
59873;BME280;50750;51.636;4.948;2023-07-13T07:21:23;101727.42;;;24.59;50.29
59873;BME280;50750;51.636;4.948;2023-07-13T07:23:51;101725.23;;;24.59;50.21
59873;BME280;50750;51.636;4.948;2023-07-13T07:26:18;101731.71;;;24.59;50.28
59873;BME280;50750;51.636;4.948;2023-07-13T07:28:45;101733.55;;;24.58;50.29
59873;BME280;50750;51.636;4.948;2023-07-13T07:31:11;101733.02;;;24.59;50.18
59873;BME280;50750;51.636;4.948;2023-07-13T07:33:38;101734.97;;;24.59;50.27
59873;BME280;50750;51.636;4.948;2023-07-13T07:36:05;101734.63;;;24.58;50.38
59873;BME280;50750;51.636;4.948;2023-07-13T07:38:32;101742.15;;;24.58;50.37
59873;BME280;50750;51.636;4.948;2023-07-13T07:40:58;101738.95;;;24.58;50.41
59873;BME280;50750;51.636;4.948;2023-07-13T07:43:24;101743.75;;;24.58;50.33
59873;BME280;50750;51.636;4.948;2023-07-13T07:45:51;101744.31;;;24.58;50.30
59873;BME280;50750;51.636;4.948;2023-07-13T07:48:17;101743.90;;;24.59;50.31
59873;BME280;50750;51.636;4.948;2023-07-13T07:50:44;101742.81;;;24.59;50.33
59873;BME280;50750;51.636;4.948;2023-07-13T07:53:10;101744.27;;;24.59;50.30
59873;BME280;50750;51.636;4.948;2023-07-13T07:55:37;101749.84;;;24.59;50.50
59873;BME280;50750;51.636;4.948;2023-07-13T07:58:05;101747.86;;;24.59;50.42
59873;BME280;50750;51.636;4.948;2023-07-13T08:00:32;101747.71;;;24.58;50.42
59873;BME280;50750;51.636;4.948;2023-07-13T08:02:59;101741.80;;;24.58;50.42
59873;BME280;50750;51.636;4.948;2023-07-13T08:05:26;101738.55;;;24.59;50.22
59873;BME280;50750;51.636;4.948;2023-07-13T08:07:53;101741.78;;;24.59;50.29
59873;BME280;50750;51.636;4.948;2023-07-13T08:10:20;101747.58;;;24.58;50.14
59873;BME280;50750;51.636;4.948;2023-07-13T08:12:46;101753.27;;;24.58;50.35
59873;BME280;50750;51.636;4.948;2023-07-13T08:15:15;101749.16;;;24.58;50.27
59873;BME280;50750;51.636;4.948;2023-07-13T08:17:42;101744.66;;;24.58;50.29
59873;BME280;50750;51.636;4.948;2023-07-13T08:20:09;101745.77;;;24.58;50.31
59873;BME280;50750;51.636;4.948;2023-07-13T08:22:35;101742.01;;;24.58;50.30
59873;BME280;50750;51.636;4.948;2023-07-13T08:25:02;101743.84;;;24.57;50.35
59873;BME280;50750;51.636;4.948;2023-07-13T08:27:29;101741.13;;;24.58;50.29
59873;BME280;50750;51.636;4.948;2023-07-13T08:29:56;101744.35;;;24.58;50.26
59873;BME280;50750;51.636;4.948;2023-07-13T08:32:23;101750.63;;;24.58;50.22
59873;BME280;50750;51.636;4.948;2023-07-13T08:34:50;101750.63;;;24.58;50.28
59873;BME280;50750;51.636;4.948;2023-07-13T08:37:17;101746.13;;;24.58;50.29
59873;BME280;50750;51.636;4.948;2023-07-13T08:39:44;101742.02;;;24.58;50.33
59873;BME280;50750;51.636;4.948;2023-07-13T08:42:35;101742.59;;;24.57;50.32
59873;BME280;50750;51.636;4.948;2023-07-13T08:48:31;101747.56;;;24.58;50.23
59873;BME280;50750;51.636;4.948;2023-07-13T08:51:13;101745.27;;;24.57;50.29
59873;BME280;50750;51.636;4.948;2023-07-13T08:53:48;101737.92;;;24.57;50.46
59873;BME280;50750;51.636;4.948;2023-07-13T08:56:24;101744.16;;;24.58;50.25
59873;BME280;50750;51.636;4.948;2023-07-13T08:59:11;101738.27;;;24.57;50.36
59873;BME280;50750;51.636;4.948;2023-07-13T09:02:04;101737.34;;;24.58;50.27
59873;BME280;50750;51.636;4.948;2023-07-13T09:04:41;101740.16;;;24.59;50.25
59873;BME280;50750;51.636;4.948;2023-07-13T09:07:12;101745.19;;;24.58;50.30
59873;BME280;50750;51.636;4.948;2023-07-13T09:14:48;101735.59;;;24.60;50.23
59873;BME280;50750;51.636;4.948;2023-07-13T09:17:24;101736.95;;;24.60;50.24
59873;BME280;50750;51.636;4.948;2023-07-13T09:22:45;101739.17;;;24.62;50.46
59873;BME280;50750;51.636;4.948;2023-07-13T09:27:58;101737.81;;;24.64;50.05
59873;BME280;50750;51.636;4.948;2023-07-13T09:30:33;101741.56;;;24.64;50.12
59873;BME280;50750;51.636;4.948;2023-07-13T09:33:02;101736.33;;;24.64;50.01
59873;BME280;50750;51.636;4.948;2023-07-13T09:35:30;101744.88;;;24.65;50.10
59873;BME280;50750;51.636;4.948;2023-07-13T09:38:13;101748.41;;;24.65;50.06
59873;BME280;50750;51.636;4.948;2023-07-13T09:40:48;101750.90;;;24.66;49.98
59873;BME280;50750;51.636;4.948;2023-07-13T09:43:20;101752.30;;;24.66;49.99
59873;BME280;50750;51.636;4.948;2023-07-13T09:45:47;101743.70;;;24.66;49.99
59873;BME280;50750;51.636;4.948;2023-07-13T09:48:16;101735.84;;;24.66;49.97
59873;BME280;50750;51.636;4.948;2023-07-13T09:50:43;101734.20;;;24.66;49.92
59873;BME280;50750;51.636;4.948;2023-07-13T09:53:15;101739.34;;;24.67;49.81
59873;BME280;50750;51.636;4.948;2023-07-13T09:55:44;101740.41;;;24.67;49.85
59873;BME280;50750;51.636;4.948;2023-07-13T09:58:15;101738.30;;;24.67;49.76
59873;BME280;50750;51.636;4.948;2023-07-13T10:00:44;101740.59;;;24.67;49.82
59873;BME280;50750;51.636;4.948;2023-07-13T10:03:22;101746.84;;;24.67;49.73
59873;BME280;50750;51.636;4.948;2023-07-13T10:05:51;101751.27;;;24.67;49.76
59873;BME280;50750;51.636;4.948;2023-07-13T10:08:25;101752.86;;;24.68;49.56
59873;BME280;50750;51.636;4.948;2023-07-13T10:11:01;101753.91;;;24.68;49.66
59873;BME280;50750;51.636;4.948;2023-07-13T10:13:37;101758.39;;;24.68;49.60
59873;BME280;50750;51.636;4.948;2023-07-13T10:16:05;101766.05;;;24.69;49.47
59873;BME280;50750;51.636;4.948;2023-07-13T10:18:46;101770.17;;;24.69;49.40
59873;BME280;50750;51.636;4.948;2023-07-13T10:21:19;101776.25;;;24.69;49.49
59873;BME280;50750;51.636;4.948;2023-07-13T10:23:56;101772.98;;;24.70;49.43
59873;BME280;50750;51.636;4.948;2023-07-13T10:26:29;101775.61;;;24.71;49.29
59873;BME280;50750;51.636;4.948;2023-07-13T10:29:03;101775.27;;;24.70;49.42
59873;BME280;50750;51.636;4.948;2023-07-13T10:31:30;101783.83;;;24.71;49.34
59873;BME280;50750;51.636;4.948;2023-07-13T10:33:57;101792.22;;;24.71;49.36
59873;BME280;50750;51.636;4.948;2023-07-13T10:36:39;101802.20;;;24.72;49.15
59873;BME280;50750;51.636;4.948;2023-07-13T10:39:07;101793.42;;;24.72;49.22
59873;BME280;50750;51.636;4.948;2023-07-13T10:41:39;101791.83;;;24.72;49.29
59873;BME280;50750;51.636;4.948;2023-07-13T10:44:18;101791.79;;;24.72;49.34
59873;BME280;50750;51.636;4.948;2023-07-13T10:46:47;101791.80;;;24.72;49.44
59873;BME280;50750;51.636;4.948;2023-07-13T10:49:14;101787.15;;;24.72;49.43
59873;BME280;50750;51.636;4.948;2023-07-13T10:51:43;101794.48;;;24.72;49.54
59873;BME280;50750;51.636;4.948;2023-07-13T10:56:38;101796.61;;;24.72;49.35
59873;BME280;50750;51.636;4.948;2023-07-13T11:04:40;101797.97;;;24.73;49.15
59873;BME280;50750;51.636;4.948;2023-07-13T11:07:20;101796.19;;;24.73;49.04
59873;BME280;50750;51.636;4.948;2023-07-13T11:09:58;101796.73;;;24.73;48.96
59873;BME280;50750;51.636;4.948;2023-07-13T11:20:09;101797.71;;;24.74;48.99
59873;BME280;50750;51.636;4.948;2023-07-13T11:22:43;101807.00;;;24.75;48.91
59873;BME280;50750;51.636;4.948;2023-07-13T11:25:30;101804.31;;;24.75;49.00
59873;BME280;50750;51.636;4.948;2023-07-13T11:35:37;101804.98;;;24.76;48.65
59873;BME280;50750;51.636;4.948;2023-07-13T11:38:32;101801.95;;;24.75;48.56
59873;BME280;50750;51.636;4.948;2023-07-13T11:41:04;101800.67;;;24.75;48.48
59873;BME280;50750;51.636;4.948;2023-07-13T11:43:31;101803.63;;;24.77;48.39
59873;BME280;50750;51.636;4.948;2023-07-13T11:46:16;101797.02;;;24.76;48.43
59873;BME280;50750;51.636;4.948;2023-07-13T11:48:44;101801.30;;;24.77;48.55
59873;BME280;50750;51.636;4.948;2023-07-13T11:51:21;101798.21;;;24.77;48.43
59873;BME280;50750;51.636;4.948;2023-07-13T11:53:51;101801.45;;;24.77;48.34
59873;BME280;50750;51.636;4.948;2023-07-13T11:56:18;101802.69;;;24.77;48.16
59873;BME280;50750;51.636;4.948;2023-07-13T11:58:57;101812.12;;;24.78;48.20
59873;BME280;50750;51.636;4.948;2023-07-13T12:01:30;101805.14;;;24.78;48.16
59873;BME280;50750;51.636;4.948;2023-07-13T12:04:03;101806.02;;;24.78;48.11
59873;BME280;50750;51.636;4.948;2023-07-13T12:06:35;101804.35;;;24.79;48.03
59873;BME280;50750;51.636;4.948;2023-07-13T12:09:14;101805.41;;;24.79;47.89
59873;BME280;50750;51.636;4.948;2023-07-13T12:11:44;101810.06;;;24.79;47.98
59873;BME280;50750;51.636;4.948;2023-07-13T12:14:18;101803.77;;;24.80;47.97
59873;BME280;50750;51.636;4.948;2023-07-13T12:16:46;101803.39;;;24.80;47.82
59873;BME280;50750;51.636;4.948;2023-07-13T12:19:24;101806.98;;;24.80;47.76
59873;BME280;50750;51.636;4.948;2023-07-13T12:21:56;101805.70;;;24.80;47.95
59873;BME280;50750;51.636;4.948;2023-07-13T12:24:24;101803.20;;;24.80;47.86
59873;BME280;50750;51.636;4.948;2023-07-13T12:26:53;101810.55;;;24.80;47.85
59873;BME280;50750;51.636;4.948;2023-07-13T12:29:20;101810.46;;;24.81;47.79
59873;BME280;50750;51.636;4.948;2023-07-13T12:31:49;101816.21;;;24.81;47.67
59873;BME280;50750;51.636;4.948;2023-07-13T12:34:21;101815.64;;;24.81;47.67
59873;BME280;50750;51.636;4.948;2023-07-13T12:39:20;101812.59;;;24.81;47.62
59873;BME280;50750;51.636;4.948;2023-07-13T12:41:48;101815.09;;;24.81;47.52
59873;BME280;50750;51.636;4.948;2023-07-13T12:44:20;101814.71;;;24.82;47.65
59873;BME280;50750;51.636;4.948;2023-07-13T12:46:54;101813.24;;;24.82;47.51
59873;BME280;50750;51.636;4.948;2023-07-13T12:49:27;101822.18;;;24.82;47.47
59873;BME280;50750;51.636;4.948;2023-07-13T12:51:59;101822.88;;;24.82;47.50
59873;BME280;50750;51.636;4.948;2023-07-13T12:54:27;101825.04;;;24.82;47.52
59873;BME280;50750;51.636;4.948;2023-07-13T12:56:56;101823.03;;;24.83;47.51
59873;BME280;50750;51.636;4.948;2023-07-13T12:59:31;101828.95;;;24.83;47.52
59873;BME280;50750;51.636;4.948;2023-07-13T13:02:00;101833.39;;;24.83;47.49
59873;BME280;50750;51.636;4.948;2023-07-13T13:04:27;101833.94;;;24.83;47.46
59873;BME280;50750;51.636;4.948;2023-07-13T13:07:02;101836.05;;;24.84;47.36
59873;BME280;50750;51.636;4.948;2023-07-13T13:09:29;101836.25;;;24.83;47.39
59873;BME280;50750;51.636;4.948;2023-07-13T13:11:55;101837.66;;;24.84;47.44
59873;BME280;50750;51.636;4.948;2023-07-13T13:14:22;101843.36;;;24.84;47.45
59873;BME280;50750;51.636;4.948;2023-07-13T13:16:50;101849.44;;;24.84;47.51
59873;BME280;50750;51.636;4.948;2023-07-13T13:19:20;101853.71;;;24.85;47.56
59873;BME280;50750;51.636;4.948;2023-07-13T13:21:52;101853.90;;;24.84;47.64
59873;BME280;50750;51.636;4.948;2023-07-13T13:24:22;101854.07;;;24.84;47.71
59873;BME280;50750;51.636;4.948;2023-07-13T13:26:50;101855.81;;;24.85;47.79
59873;BME280;50750;51.636;4.948;2023-07-13T13:29:19;101856.93;;;24.84;47.87
59873;BME280;50750;51.636;4.948;2023-07-13T13:31:47;101852.46;;;24.84;47.82
59873;BME280;50750;51.636;4.948;2023-07-13T13:34:15;101852.49;;;24.84;47.89
59873;BME280;50750;51.636;4.948;2023-07-13T13:36:43;101853.52;;;24.85;47.87
59873;BME280;50750;51.636;4.948;2023-07-13T13:39:24;101846.71;;;24.85;47.87
59873;BME280;50750;51.636;4.948;2023-07-13T13:41:52;101847.44;;;24.85;48.01